Aviation Digital Data Service (ADDS)

Output produced by METARs form (1542 UTC 20 March 2019)
found at http://www.aviationweather.gov/metar/data/
 
METAR text: LTAZ 201520Z 28010KT 9999 FEW040 18/M02 Q1017 RMK RWY29 28011KT
Conditions at: LTAZ (NEVSEHIR , TR) observed 1520 UTC 20 March 2019
Temperature: 18.0°C (64°F)
Dewpoint: -2.0°C (28°F) [RH = 26%]
Pressure (altimeter): 30.03 inches Hg (1017.0 mb)
Winds: from the W (280 degrees) at 12 MPH (10 knots; 5.1 m/s)
Visibility: 6 or more miles (10+ km)
Ceiling: at least 12,000 feet AGL
Clouds: few clouds at 4000 feet AGL
Weather: no significant weather observed at this time

METAR text: LTAZ 201450Z 27008KT 9999 FEW040 19/M01 Q1016 RMK RWY29 30010KT
Conditions at: LTAZ (NEVSEHIR , TR) observed 1450 UTC 20 March 2019
Temperature: 19.0°C (66°F)
Dewpoint: -1.0°C (30°F) [RH = 26%]
Pressure (altimeter): 30.00 inches Hg (1016.0 mb)
Winds: from the W (270 degrees) at 9 MPH (8 knots; 4.1 m/s)
Visibility: 6 or more miles (10+ km)
Ceiling: at least 12,000 feet AGL
Clouds: few clouds at 4000 feet AGL
Weather: no significant weather observed at this time

METAR text: LTAZ 201420Z 32005KT 250V360 9999 FEW040 18/M00 Q1016 RMK RWY29 31010KT
Conditions at: LTAZ (NEVSEHIR , TR) observed 1420 UTC 20 March 2019
Temperature: 18.0°C (64°F)
Dewpoint: 0.0°C (32°F) [RH = 30%]
Pressure (altimeter): 30.00 inches Hg (1016.0 mb)
Winds: from the NW (320 degrees) at 6 MPH (5 knots; 2.6 m/s)
Visibility: 6 or more miles (10+ km)
Ceiling: at least 12,000 feet AGL
Clouds: few clouds at 4000 feet AGL
Weather: no significant weather observed at this time

METAR text: LTAZ 201350Z 32006KT 270V340 9999 FEW040 19/M02 Q1017 RMK RWY29 29010KT
Conditions at: LTAZ (NEVSEHIR , TR) observed 1350 UTC 20 March 2019
Temperature: 19.0°C (66°F)
Dewpoint: -2.0°C (28°F) [RH = 24%]
Pressure (altimeter): 30.03 inches Hg (1017.0 mb)
Winds: from the NW (320 degrees) at 7 MPH (6 knots; 3.1 m/s)
Visibility: 6 or more miles (10+ km)
Ceiling: at least 12,000 feet AGL
Clouds: few clouds at 4000 feet AGL
Weather: no significant weather observed at this time

METAR text: LTAZ 201320Z 29008KT 250V330 9999 FEW040 20/M01 Q1017 RMK RWY29 28008KT 250V320
Conditions at: LTAZ (NEVSEHIR , TR) observed 1320 UTC 20 March 2019
Temperature: 20.0°C (68°F)
Dewpoint: -1.0°C (30°F) [RH = 24%]
Pressure (altimeter): 30.03 inches Hg (1017.0 mb)
Winds: from the WNW (290 degrees) at 9 MPH (8 knots; 4.1 m/s)
Visibility: 6 or more miles (10+ km)
Ceiling: at least 12,000 feet AGL
Clouds: few clouds at 4000 feet AGL
Weather: no significant weather observed at this time

METAR text: LTAZ 201250Z 35005KT 300V030 9999 FEW040 19/M01 Q1017 RMK RWY29 26008KT 230V340
Conditions at: LTAZ (NEVSEHIR , TR) observed 1250 UTC 20 March 2019
Temperature: 19.0°C (66°F)
Dewpoint: -1.0°C (30°F) [RH = 26%]
Pressure (altimeter): 30.03 inches Hg (1017.0 mb)
Winds: from the N (350 degrees) at 6 MPH (5 knots; 2.6 m/s)
Visibility: 6 or more miles (10+ km)
Ceiling: at least 12,000 feet AGL
Clouds: few clouds at 4000 feet AGL
Weather: no significant weather observed at this time

METAR text: LTAZ 201220Z 26009KT 220V300 9999 FEW040 19/M02 Q1017 RMK RWY29 26011KT 230V290
Conditions at: LTAZ (NEVSEHIR , TR) observed 1220 UTC 20 March 2019
Temperature: 19.0°C (66°F)
Dewpoint: -2.0°C (28°F) [RH = 24%]
Pressure (altimeter): 30.03 inches Hg (1017.0 mb)
Winds: from the W (260 degrees) at 10 MPH (9 knots; 4.6 m/s)
Visibility: 6 or more miles (10+ km)
Ceiling: at least 12,000 feet AGL
Clouds: few clouds at 4000 feet AGL
Weather: no significant weather observed at this time

METAR text: LTAZ 201150Z 25008KT 210V300 9999 FEW040 19/M02 Q1017 RMK RWY29 VRB04KT
Conditions at: LTAZ (NEVSEHIR , TR) observed 1150 UTC 20 March 2019
Temperature: 19.0°C (66°F)
Dewpoint: -2.0°C (28°F) [RH = 24%]
Pressure (altimeter): 30.03 inches Hg (1017.0 mb)
Winds: from the WSW (250 degrees) at 9 MPH (8 knots; 4.1 m/s)
Visibility: 6 or more miles (10+ km)
Ceiling: at least 12,000 feet AGL
Clouds: few clouds at 4000 feet AGL
Weather: no significant weather observed at this time

METAR text: LTAZ 201120Z 28010KT 250V330 9999 FEW040 19/M02 Q1018 RMK RWY29 26008KT 230V300
Conditions at: LTAZ (NEVSEHIR , TR) observed 1120 UTC 20 March 2019
Temperature: 19.0°C (66°F)
Dewpoint: -2.0°C (28°F) [RH = 24%]
Pressure (altimeter): 30.06 inches Hg (1018.0 mb)
Winds: from the W (280 degrees) at 12 MPH (10 knots; 5.1 m/s)
Visibility: 6 or more miles (10+ km)
Ceiling: at least 12,000 feet AGL
Clouds: few clouds at 4000 feet AGL
Weather: no significant weather observed at this time

METAR text: LTAZ 201050Z 27009KT 200V310 9999 FEW040 18/M02 Q1018 RMK RWY29 27007KT 220V360
Conditions at: LTAZ (NEVSEHIR , TR) observed 1050 UTC 20 March 2019
Temperature: 18.0°C (64°F)
Dewpoint: -2.0°C (28°F) [RH = 26%]
Pressure (altimeter): 30.06 inches Hg (1018.0 mb)
Winds: from the W (270 degrees) at 10 MPH (9 knots; 4.6 m/s)
Visibility: 6 or more miles (10+ km)
Ceiling: at least 12,000 feet AGL
Clouds: few clouds at 4000 feet AGL
Weather: no significant weather observed at this time

METAR text: LTAZ 201020Z 33007KT 270V030 9999 FEW040 18/M02 Q1018 RMK RWY29 29006KT 170V340
Conditions at: LTAZ (NEVSEHIR , TR) observed 1020 UTC 20 March 2019
Temperature: 18.0°C (64°F)
Dewpoint: -2.0°C (28°F) [RH = 26%]
Pressure (altimeter): 30.06 inches Hg (1018.0 mb)
Winds: from the NNW (330 degrees) at 8 MPH (7 knots; 3.6 m/s)
Visibility: 6 or more miles (10+ km)
Ceiling: at least 12,000 feet AGL
Clouds: few clouds at 4000 feet AGL
Weather: no significant weather observed at this time

METAR text: LTAZ 200950Z VRB06KT 9999 FEW040 19/M02 Q1018 RMK RWY29 27006KT 230V340
Conditions at: LTAZ (NEVSEHIR , TR) observed 0950 UTC 20 March 2019
Temperature: 19.0°C (66°F)
Dewpoint: -2.0°C (28°F) [RH = 24%]
Pressure (altimeter): 30.06 inches Hg (1018.0 mb)
Winds: variable direction winds at 7 MPH (6 knots; 3.1 m/s)
Visibility: 6 or more miles (10+ km)
Ceiling: at least 12,000 feet AGL
Clouds: few clouds at 4000 feet AGL
Weather: no significant weather observed at this time

METAR text: LTAZ 200920Z VRB03KT 9999 FEW040 18/M03 Q1019 RMK RWY29 28005KT 210V340
Conditions at: LTAZ (NEVSEHIR , TR) observed 0920 UTC 20 March 2019
Temperature: 18.0°C (64°F)
Dewpoint: -3.0°C (27°F) [RH = 24%]
Pressure (altimeter): 30.09 inches Hg (1019.0 mb)
Winds: variable direction winds at 3 MPH (3 knots; 1.5 m/s)
Visibility: 6 or more miles (10+ km)
Ceiling: at least 12,000 feet AGL
Clouds: few clouds at 4000 feet AGL
Weather: no significant weather observed at this time

METAR text: LTAZ 200850Z VRB02KT 9999 FEW040 16/M03 Q1019 RMK RWY29 32004KT 260V030
Conditions at: LTAZ (NEVSEHIR , TR) observed 0850 UTC 20 March 2019
Temperature: 16.0°C (61°F)
Dewpoint: -3.0°C (27°F) [RH = 27%]
Pressure (altimeter): 30.09 inches Hg (1019.0 mb)
Winds: variable direction winds at 2 MPH (2 knots; 1.0 m/s)
Visibility: 6 or more miles (10+ km)
Ceiling: at least 12,000 feet AGL
Clouds: few clouds at 4000 feet AGL
Weather: no significant weather observed at this time

METAR text: LTAZ 200820Z VRB02KT CAVOK 15/M01 Q1019 RMK RWY29 VRB02KT
Conditions at: LTAZ (NEVSEHIR , TR) observed 0820 UTC 20 March 2019
Temperature: 15.0°C (59°F)
Dewpoint: -1.0°C (30°F) [RH = 33%]
Pressure (altimeter): 30.09 inches Hg (1019.0 mb)
Winds: variable direction winds at 2 MPH (2 knots; 1.0 m/s)
Visibility: 6 or more miles (10+ km)
Ceiling: ceiling and visibility are OK
Clouds: unknown
Weather: no significant weather observed at this time

METAR text: LTAZ 200750Z VRB02KT CAVOK 14/M00 Q1019 RMK RWY29 12005KT 070V220
Conditions at: LTAZ (NEVSEHIR , TR) observed 0750 UTC 20 March 2019
Temperature: 14.0°C (57°F)
Dewpoint: 0.0°C (32°F) [RH = 38%]
Pressure (altimeter): 30.09 inches Hg (1019.0 mb)
Winds: variable direction winds at 2 MPH (2 knots; 1.0 m/s)
Visibility: 6 or more miles (10+ km)
Ceiling: ceiling and visibility are OK
Clouds: unknown
Weather: no significant weather observed at this time

METAR text: LTAZ 200720Z 12004KT 090V150 CAVOK 12/M01 Q1019 RMK RWY29 11006KT
Conditions at: LTAZ (NEVSEHIR , TR) observed 0720 UTC 20 March 2019
Temperature: 12.0°C (54°F)
Dewpoint: -1.0°C (30°F) [RH = 40%]
Pressure (altimeter): 30.09 inches Hg (1019.0 mb)
Winds: from the ESE (120 degrees) at 5 MPH (4 knots; 2.1 m/s)
Visibility: 6 or more miles (10+ km)
Ceiling: ceiling and visibility are OK
Clouds: unknown
Weather: no significant weather observed at this time

METAR text: LTAZ 200650Z 12007KT CAVOK 10/M00 Q1020 RMK RWY29 12007KT
Conditions at: LTAZ (NEVSEHIR , TR) observed 0650 UTC 20 March 2019
Temperature: 10.0°C (50°F)
Dewpoint: 0.0°C (32°F) [RH = 50%]
Pressure (altimeter): 30.12 inches Hg (1020.0 mb)
Winds: from the ESE (120 degrees) at 8 MPH (7 knots; 3.6 m/s)
Visibility: 6 or more miles (10+ km)
Ceiling: ceiling and visibility are OK
Clouds: unknown
Weather: no significant weather observed at this time

METAR text: LTAZ 200620Z 12008KT CAVOK 08/M01 Q1020 RMK RWY29 11008KT
Conditions at: LTAZ (NEVSEHIR , TR) observed 0620 UTC 20 March 2019
Temperature: 8.0°C (46°F)
Dewpoint: -1.0°C (30°F) [RH = 53%]
Pressure (altimeter): 30.12 inches Hg (1020.0 mb)
Winds: from the ESE (120 degrees) at 9 MPH (8 knots; 4.1 m/s)
Visibility: 6 or more miles (10+ km)
Ceiling: ceiling and visibility are OK
Clouds: unknown
Weather: no significant weather observed at this time

METAR text: LTAZ 200550Z 12006KT CAVOK 06/M01 Q1020 RMK RWY29 12005KT 090V150
Conditions at: LTAZ (NEVSEHIR , TR) observed 0550 UTC 20 March 2019
Temperature: 6.0°C (43°F)
Dewpoint: -1.0°C (30°F) [RH = 61%]
Pressure (altimeter): 30.12 inches Hg (1020.0 mb)
Winds: from the ESE (120 degrees) at 7 MPH (6 knots; 3.1 m/s)
Visibility: 6 or more miles (10+ km)
Ceiling: ceiling and visibility are OK
Clouds: unknown
Weather: no significant weather observed at this time

METAR text: LTAZ 200520Z 11005KT CAVOK 04/M02 Q1020 RMK RWY29 12003KT 090V160
Conditions at: LTAZ (NEVSEHIR , TR) observed 0520 UTC 20 March 2019
Temperature: 4.0°C (39°F)
Dewpoint: -2.0°C (28°F) [RH = 65%]
Pressure (altimeter): 30.12 inches Hg (1020.0 mb)
Winds: from the ESE (110 degrees) at 6 MPH (5 knots; 2.6 m/s)
Visibility: 6 or more miles (10+ km)
Ceiling: ceiling and visibility are OK
Clouds: unknown
Weather: no significant weather observed at this time

METAR text: LTAZ 200450Z VRB01KT CAVOK 02/M02 Q1020 RMK RWY29 VRB02KT
Conditions at: LTAZ (NEVSEHIR , TR) observed 0450 UTC 20 March 2019
Temperature: 2.0°C (36°F)
Dewpoint: -2.0°C (28°F) [RH = 75%]
Pressure (altimeter): 30.12 inches Hg (1020.0 mb)
Winds: variable direction winds at 1 MPH (1 knots; 0.5 m/s)
Visibility: 6 or more miles (10+ km)
Ceiling: ceiling and visibility are OK
Clouds: unknown
Weather: no significant weather observed at this time

METAR text: LTAZ 200420Z 07003KT CAVOK 00/M02 Q1020 RMK RWY29 VRB01KT
Conditions at: LTAZ (NEVSEHIR , TR) observed 0420 UTC 20 March 2019
Temperature: 0.0°C (32°F)
Dewpoint: -2.0°C (28°F) [RH = 86%]
Pressure (altimeter): 30.12 inches Hg (1020.0 mb)
Winds: from the ENE (70 degrees) at 3 MPH (3 knots; 1.5 m/s)
Visibility: 6 or more miles (10+ km)
Ceiling: ceiling and visibility are OK
Clouds: unknown
Weather: no significant weather observed at this time

METAR text: LTAZ 200350Z 15003KT CAVOK M01/M03 Q1019 RMK RWY29 16004KT
Conditions at: LTAZ (NEVSEHIR , TR) observed 0350 UTC 20 March 2019
Temperature: -1.0°C (30°F)
Dewpoint: -3.0°C (27°F) [RH = 86%]
Pressure (altimeter): 30.09 inches Hg (1019.0 mb)
Winds: from the SSE (150 degrees) at 3 MPH (3 knots; 1.5 m/s)
Visibility: 6 or more miles (10+ km)
Ceiling: ceiling and visibility are OK
Clouds: unknown
Weather: no significant weather observed at this time

METAR text: LTAZ 200320Z 13002KT CAVOK 00/M04 Q1019 RMK RWY29 18005KT 150V210
Conditions at: LTAZ (NEVSEHIR , TR) observed 0320 UTC 20 March 2019
Temperature: 0.0°C (32°F)
Dewpoint: -4.0°C (25°F) [RH = 74%]
Pressure (altimeter): 30.09 inches Hg (1019.0 mb)
Winds: from the SE (130 degrees) at 2 MPH (2 knots; 1.0 m/s)
Visibility: 6 or more miles (10+ km)
Ceiling: ceiling and visibility are OK
Clouds: unknown
Weather: no significant weather observed at this time

METAR text: LTAZ 200250Z VRB02KT CAVOK 01/M03 Q1019 RMK RWY29 11005KT
Conditions at: LTAZ (NEVSEHIR , TR) observed 0250 UTC 20 March 2019
Temperature: 1.0°C (34°F)
Dewpoint: -3.0°C (27°F) [RH = 75%]
Pressure (altimeter): 30.09 inches Hg (1019.0 mb)
Winds: variable direction winds at 2 MPH (2 knots; 1.0 m/s)
Visibility: 6 or more miles (10+ km)
Ceiling: ceiling and visibility are OK
Clouds: unknown
Weather: no significant weather observed at this time

METAR text: LTAZ 200220Z 13003KT CAVOK 01/M03 Q1019 RMK RWY29 15005KT 130V230
Conditions at: LTAZ (NEVSEHIR , TR) observed 0220 UTC 20 March 2019
Temperature: 1.0°C (34°F)
Dewpoint: -3.0°C (27°F) [RH = 75%]
Pressure (altimeter): 30.09 inches Hg (1019.0 mb)
Winds: from the SE (130 degrees) at 3 MPH (3 knots; 1.5 m/s)
Visibility: 6 or more miles (10+ km)
Ceiling: ceiling and visibility are OK
Clouds: unknown
Weather: no significant weather observed at this time

METAR text: LTAZ 200150Z 14006KT CAVOK 01/M03 Q1019 RMK RWY29 15004KT
Conditions at: LTAZ (NEVSEHIR , TR) observed 0150 UTC 20 March 2019
Temperature: 1.0°C (34°F)
Dewpoint: -3.0°C (27°F) [RH = 75%]
Pressure (altimeter): 30.09 inches Hg (1019.0 mb)
Winds: from the SE (140 degrees) at 7 MPH (6 knots; 3.1 m/s)
Visibility: 6 or more miles (10+ km)
Ceiling: ceiling and visibility are OK
Clouds: unknown
Weather: no significant weather observed at this time

METAR text: LTAZ 200120Z 08003KT CAVOK 02/M01 Q1019 RMK RWY29 VRB01KT
Conditions at: LTAZ (NEVSEHIR , TR) observed 0120 UTC 20 March 2019
Temperature: 2.0°C (36°F)
Dewpoint: -1.0°C (30°F) [RH = 80%]
Pressure (altimeter): 30.09 inches Hg (1019.0 mb)
Winds: from the E (80 degrees) at 3 MPH (3 knots; 1.5 m/s)
Visibility: 6 or more miles (10+ km)
Ceiling: ceiling and visibility are OK
Clouds: unknown
Weather: no significant weather observed at this time

METAR text: LTAZ 200050Z VRB01KT CAVOK 02/M02 Q1019 RMK RWY29 20003KT 150V230
Conditions at: LTAZ (NEVSEHIR , TR) observed 0050 UTC 20 March 2019
Temperature: 2.0°C (36°F)
Dewpoint: -2.0°C (28°F) [RH = 75%]
Pressure (altimeter): 30.09 inches Hg (1019.0 mb)
Winds: variable direction winds at 1 MPH (1 knots; 0.5 m/s)
Visibility: 6 or more miles (10+ km)
Ceiling: ceiling and visibility are OK
Clouds: unknown
Weather: no significant weather observed at this time

METAR text: LTAZ 200020Z 10004KT CAVOK 03/M02 Q1019 RMK RWY29 11002KT
Conditions at: LTAZ (NEVSEHIR , TR) observed 0020 UTC 20 March 2019
Temperature: 3.0°C (37°F)
Dewpoint: -2.0°C (28°F) [RH = 70%]
Pressure (altimeter): 30.09 inches Hg (1019.0 mb)
Winds: from the E (100 degrees) at 5 MPH (4 knots; 2.1 m/s)
Visibility: 6 or more miles (10+ km)
Ceiling: ceiling and visibility are OK
Clouds: unknown
Weather: no significant weather observed at this time

METAR text: LTAZ 192350Z VRB01KT CAVOK 02/M03 Q1019 RMK RWY29 13003KT
Conditions at: LTAZ (NEVSEHIR , TR) observed 2350 UTC 19 March 2019
Temperature: 2.0°C (36°F)
Dewpoint: -3.0°C (27°F) [RH = 69%]
Pressure (altimeter): 30.09 inches Hg (1019.0 mb)
Winds: variable direction winds at 1 MPH (1 knots; 0.5 m/s)
Visibility: 6 or more miles (10+ km)
Ceiling: ceiling and visibility are OK
Clouds: unknown
Weather: no significant weather observed at this time

METAR text: LTAZ 192320Z 00000KT CAVOK 03/M02 Q1019 RMK RWY29 VRB01KT
Conditions at: LTAZ (NEVSEHIR , TR) observed 2320 UTC 19 March 2019
Temperature: 3.0°C (37°F)
Dewpoint: -2.0°C (28°F) [RH = 70%]
Pressure (altimeter): 30.09 inches Hg (1019.0 mb)
Winds: calm
Visibility: 6 or more miles (10+ km)
Ceiling: ceiling and visibility are OK
Clouds: unknown
Weather: no significant weather observed at this time

METAR text: LTAZ 192250Z 00000KT CAVOK 03/M02 Q1019 RMK RWY29 18002KT
Conditions at: LTAZ (NEVSEHIR , TR) observed 2250 UTC 19 March 2019
Temperature: 3.0°C (37°F)
Dewpoint: -2.0°C (28°F) [RH = 70%]
Pressure (altimeter): 30.09 inches Hg (1019.0 mb)
Winds: calm
Visibility: 6 or more miles (10+ km)
Ceiling: ceiling and visibility are OK
Clouds: unknown
Weather: no significant weather observed at this time

METAR text: LTAZ 192220Z 00000KT CAVOK 04/M02 Q1019 RMK RWY29 16004KT 120V190
Conditions at: LTAZ (NEVSEHIR , TR) observed 2220 UTC 19 March 2019
Temperature: 4.0°C (39°F)
Dewpoint: -2.0°C (28°F) [RH = 65%]
Pressure (altimeter): 30.09 inches Hg (1019.0 mb)
Winds: calm
Visibility: 6 or more miles (10+ km)
Ceiling: ceiling and visibility are OK
Clouds: unknown
Weather: no significant weather observed at this time

METAR text: LTAZ 192150Z 14004KT 120V200 CAVOK 05/M02 Q1019 RMK RWY29 19002KT
Conditions at: LTAZ (NEVSEHIR , TR) observed 2150 UTC 19 March 2019
Temperature: 5.0°C (41°F)
Dewpoint: -2.0°C (28°F) [RH = 60%]
Pressure (altimeter): 30.09 inches Hg (1019.0 mb)
Winds: from the SE (140 degrees) at 5 MPH (4 knots; 2.1 m/s)
Visibility: 6 or more miles (10+ km)
Ceiling: ceiling and visibility are OK
Clouds: unknown
Weather: no significant weather observed at this time

METAR text: LTAZ 192120Z 10002KT CAVOK 05/M02 Q1019 RMK RWY29 VRB02KT
Conditions at: LTAZ (NEVSEHIR , TR) observed 2120 UTC 19 March 2019
Temperature: 5.0°C (41°F)
Dewpoint: -2.0°C (28°F) [RH = 60%]
Pressure (altimeter): 30.09 inches Hg (1019.0 mb)
Winds: from the E (100 degrees) at 2 MPH (2 knots; 1.0 m/s)
Visibility: 6 or more miles (10+ km)
Ceiling: ceiling and visibility are OK
Clouds: unknown
Weather: no significant weather observed at this time

METAR text: LTAZ 192050Z 00000KT CAVOK 06/M01 Q1019 RMK RWY29 18003KT
Conditions at: LTAZ (NEVSEHIR , TR) observed 2050 UTC 19 March 2019
Temperature: 6.0°C (43°F)
Dewpoint: -1.0°C (30°F) [RH = 61%]
Pressure (altimeter): 30.09 inches Hg (1019.0 mb)
Winds: calm
Visibility: 6 or more miles (10+ km)
Ceiling: ceiling and visibility are OK
Clouds: unknown
Weather: no significant weather observed at this time

METAR text: LTAZ 192020Z 00000KT CAVOK 07/M01 Q1019 RMK RWY29 VRB02KT
Conditions at: LTAZ (NEVSEHIR , TR) observed 2020 UTC 19 March 2019
Temperature: 7.0°C (45°F)
Dewpoint: -1.0°C (30°F) [RH = 57%]
Pressure (altimeter): 30.09 inches Hg (1019.0 mb)
Winds: calm
Visibility: 6 or more miles (10+ km)
Ceiling: ceiling and visibility are OK
Clouds: unknown
Weather: no significant weather observed at this time

METAR text: LTAZ 191950Z VRB02KT CAVOK 07/M01 Q1019 RMK RWY29 VRB02KT
Conditions at: LTAZ (NEVSEHIR , TR) observed 1950 UTC 19 March 2019
Temperature: 7.0°C (45°F)
Dewpoint: -1.0°C (30°F) [RH = 57%]
Pressure (altimeter): 30.09 inches Hg (1019.0 mb)
Winds: variable direction winds at 2 MPH (2 knots; 1.0 m/s)
Visibility: 6 or more miles (10+ km)
Ceiling: ceiling and visibility are OK
Clouds: unknown
Weather: no significant weather observed at this time

METAR text: LTAZ 191920Z 21006KT CAVOK 08/M01 Q1019 RMK RWY29 20008KT
Conditions at: LTAZ (NEVSEHIR , TR) observed 1920 UTC 19 March 2019
Temperature: 8.0°C (46°F)
Dewpoint: -1.0°C (30°F) [RH = 53%]
Pressure (altimeter): 30.09 inches Hg (1019.0 mb)
Winds: from the SSW (210 degrees) at 7 MPH (6 knots; 3.1 m/s)
Visibility: 6 or more miles (10+ km)
Ceiling: ceiling and visibility are OK
Clouds: unknown
Weather: no significant weather observed at this time

METAR text: LTAZ 191850Z 22008KT CAVOK 09/M00 Q1018 RMK RWY29 18004KT 130V300
Conditions at: LTAZ (NEVSEHIR , TR) observed 1850 UTC 19 March 2019
Temperature: 9.0°C (48°F)
Dewpoint: 0.0°C (32°F) [RH = 53%]
Pressure (altimeter): 30.06 inches Hg (1018.0 mb)
Winds: from the SW (220 degrees) at 9 MPH (8 knots; 4.1 m/s)
Visibility: 6 or more miles (10+ km)
Ceiling: ceiling and visibility are OK
Clouds: unknown
Weather: no significant weather observed at this time

METAR text: LTAZ 191820Z 23006KT CAVOK 10/M01 Q1018 RMK RWY29 29007KT
Conditions at: LTAZ (NEVSEHIR , TR) observed 1820 UTC 19 March 2019
Temperature: 10.0°C (50°F)
Dewpoint: -1.0°C (30°F) [RH = 46%]
Pressure (altimeter): 30.06 inches Hg (1018.0 mb)
Winds: from the SW (230 degrees) at 7 MPH (6 knots; 3.1 m/s)
Visibility: 6 or more miles (10+ km)
Ceiling: ceiling and visibility are OK
Clouds: unknown
Weather: no significant weather observed at this time

METAR text: LTAZ 191750Z 26003KT CAVOK 11/M01 Q1018 RMK RWY29 29006KT
Conditions at: LTAZ (NEVSEHIR , TR) observed 1750 UTC 19 March 2019
Temperature: 11.0°C (52°F)
Dewpoint: -1.0°C (30°F) [RH = 43%]
Pressure (altimeter): 30.06 inches Hg (1018.0 mb)
Winds: from the W (260 degrees) at 3 MPH (3 knots; 1.5 m/s)
Visibility: 6 or more miles (10+ km)
Ceiling: ceiling and visibility are OK
Clouds: unknown
Weather: no significant weather observed at this time

METAR text: LTAZ 191720Z 27003KT CAVOK 11/M00 Q1018 RMK RWY29 28006KT
Conditions at: LTAZ (NEVSEHIR , TR) observed 1720 UTC 19 March 2019
Temperature: 11.0°C (52°F)
Dewpoint: 0.0°C (32°F) [RH = 47%]
Pressure (altimeter): 30.06 inches Hg (1018.0 mb)
Winds: from the W (270 degrees) at 3 MPH (3 knots; 1.5 m/s)
Visibility: 6 or more miles (10+ km)
Ceiling: ceiling and visibility are OK
Clouds: unknown
Weather: no significant weather observed at this time

METAR text: LTAZ 191650Z VRB01KT CAVOK 13/M01 Q1018 RMK RWY29 31006KT
Conditions at: LTAZ (NEVSEHIR , TR) observed 1650 UTC 19 March 2019
Temperature: 13.0°C (55°F)
Dewpoint: -1.0°C (30°F) [RH = 38%]
Pressure (altimeter): 30.06 inches Hg (1018.0 mb)
Winds: variable direction winds at 1 MPH (1 knots; 0.5 m/s)
Visibility: 6 or more miles (10+ km)
Ceiling: ceiling and visibility are OK
Clouds: unknown
Weather: no significant weather observed at this time

METAR text: LTAZ 191620Z 25005KT CAVOK 14/M00 Q1017 RMK RWY29 27006KT
Conditions at: LTAZ (NEVSEHIR , TR) observed 1620 UTC 19 March 2019
Temperature: 14.0°C (57°F)
Dewpoint: 0.0°C (32°F) [RH = 38%]
Pressure (altimeter): 30.03 inches Hg (1017.0 mb)
Winds: from the WSW (250 degrees) at 6 MPH (5 knots; 2.6 m/s)
Visibility: 6 or more miles (10+ km)
Ceiling: ceiling and visibility are OK
Clouds: unknown
Weather: no significant weather observed at this time

METAR text: LTAZ 191550Z 27005KT 9999 FEW040 16/M00 Q1017 RMK RWY29 25006KT
Conditions at: LTAZ (NEVSEHIR , TR) observed 1550 UTC 19 March 2019
Temperature: 16.0°C (61°F)
Dewpoint: 0.0°C (32°F) [RH = 34%]
Pressure (altimeter): 30.03 inches Hg (1017.0 mb)
Winds: from the W (270 degrees) at 6 MPH (5 knots; 2.6 m/s)
Visibility: 6 or more miles (10+ km)
Ceiling: at least 12,000 feet AGL
Clouds: few clouds at 4000 feet AGL
Weather: no significant weather observed at this time

METAR text: LTAZ 191520Z 33004KT 9999 FEW040 17/00 Q1017 RMK RWY29 32005KT 300V360
Conditions at: LTAZ (NEVSEHIR , TR) observed 1520 UTC 19 March 2019
Temperature: 17.0°C (63°F)
Dewpoint: 0.0°C (32°F) [RH = 32%]
Pressure (altimeter): 30.03 inches Hg (1017.0 mb)
Winds: from the NNW (330 degrees) at 5 MPH (4 knots; 2.1 m/s)
Visibility: 6 or more miles (10+ km)
Ceiling: at least 12,000 feet AGL
Clouds: few clouds at 4000 feet AGL
Weather: no significant weather observed at this time

METAR text: LTAZ 191450Z 27006KT 240V310 9999 FEW040 18/M00 Q1017 RMK RWY29 34006KT
Conditions at: LTAZ (NEVSEHIR , TR) observed 1450 UTC 19 March 2019
Temperature: 18.0°C (64°F)
Dewpoint: 0.0°C (32°F) [RH = 30%]
Pressure (altimeter): 30.03 inches Hg (1017.0 mb)
Winds: from the W (270 degrees) at 7 MPH (6 knots; 3.1 m/s)
Visibility: 6 or more miles (10+ km)
Ceiling: at least 12,000 feet AGL
Clouds: few clouds at 4000 feet AGL
Weather: no significant weather observed at this time

METAR text: LTAZ 191420Z 33005KT 260V010 9999 FEW040 18/M00 Q1017 RMK RWY29 31008KT
Conditions at: LTAZ (NEVSEHIR , TR) observed 1420 UTC 19 March 2019
Temperature: 18.0°C (64°F)
Dewpoint: 0.0°C (32°F) [RH = 30%]
Pressure (altimeter): 30.03 inches Hg (1017.0 mb)
Winds: from the NNW (330 degrees) at 6 MPH (5 knots; 2.6 m/s)
Visibility: 6 or more miles (10+ km)
Ceiling: at least 12,000 feet AGL
Clouds: few clouds at 4000 feet AGL
Weather: no significant weather observed at this time

METAR text: LTAZ 191350Z 31008KT 270V350 9999 FEW040 19/M02 Q1017 RMK RWY29 28006KT 240V310
Conditions at: LTAZ (NEVSEHIR , TR) observed 1350 UTC 19 March 2019
Temperature: 19.0°C (66°F)
Dewpoint: -2.0°C (28°F) [RH = 24%]
Pressure (altimeter): 30.03 inches Hg (1017.0 mb)
Winds: from the NW (310 degrees) at 9 MPH (8 knots; 4.1 m/s)
Visibility: 6 or more miles (10+ km)
Ceiling: at least 12,000 feet AGL
Clouds: few clouds at 4000 feet AGL
Weather: no significant weather observed at this time

METAR text: LTAZ 191320Z 30008KT 260V330 9999 FEW040 19/M03 Q1017 RMK RWY29 VRB06KT
Conditions at: LTAZ (NEVSEHIR , TR) observed 1320 UTC 19 March 2019
Temperature: 19.0°C (66°F)
Dewpoint: -3.0°C (27°F) [RH = 22%]
Pressure (altimeter): 30.03 inches Hg (1017.0 mb)
Winds: from the WNW (300 degrees) at 9 MPH (8 knots; 4.1 m/s)
Visibility: 6 or more miles (10+ km)
Ceiling: at least 12,000 feet AGL
Clouds: few clouds at 4000 feet AGL
Weather: no significant weather observed at this time

METAR text: LTAZ 191250Z 27007KT 180V320 9999 FEW040 19/M02 Q1017 RMK RWY29 VRB04KT
Conditions at: LTAZ (NEVSEHIR , TR) observed 1250 UTC 19 March 2019
Temperature: 19.0°C (66°F)
Dewpoint: -2.0°C (28°F) [RH = 24%]
Pressure (altimeter): 30.03 inches Hg (1017.0 mb)
Winds: from the W (270 degrees) at 8 MPH (7 knots; 3.6 m/s)
Visibility: 6 or more miles (10+ km)
Ceiling: at least 12,000 feet AGL
Clouds: few clouds at 4000 feet AGL
Weather: no significant weather observed at this time

METAR text: LTAZ 191220Z VRB04KT 9999 FEW040 19/M01 Q1017 RMK RWY29 29007KT 260V330
Conditions at: LTAZ (NEVSEHIR , TR) observed 1220 UTC 19 March 2019
Temperature: 19.0°C (66°F)
Dewpoint: -1.0°C (30°F) [RH = 26%]
Pressure (altimeter): 30.03 inches Hg (1017.0 mb)
Winds: variable direction winds at 5 MPH (4 knots; 2.1 m/s)
Visibility: 6 or more miles (10+ km)
Ceiling: at least 12,000 feet AGL
Clouds: few clouds at 4000 feet AGL
Weather: no significant weather observed at this time

METAR text: LTAZ 191150Z 31006KT 270V360 9999 FEW040 18/M01 Q1017 RMK RWY29 26008KT 230V290
Conditions at: LTAZ (NEVSEHIR , TR) observed 1150 UTC 19 March 2019
Temperature: 18.0°C (64°F)
Dewpoint: -1.0°C (30°F) [RH = 28%]
Pressure (altimeter): 30.03 inches Hg (1017.0 mb)
Winds: from the NW (310 degrees) at 7 MPH (6 knots; 3.1 m/s)
Visibility: 6 or more miles (10+ km)
Ceiling: at least 12,000 feet AGL
Clouds: few clouds at 4000 feet AGL
Weather: no significant weather observed at this time

METAR text: LTAZ 191120Z VRB03KT 9999 FEW040 18/M01 Q1017 RMK RWY29 VRB04G16KT
Conditions at: LTAZ (NEVSEHIR , TR) observed 1120 UTC 19 March 2019
Temperature: 18.0°C (64°F)
Dewpoint: -1.0°C (30°F) [RH = 28%]
Pressure (altimeter): 30.03 inches Hg (1017.0 mb)
Winds: variable direction winds at 3 MPH (3 knots; 1.5 m/s)
Visibility: 6 or more miles (10+ km)
Ceiling: at least 12,000 feet AGL
Clouds: few clouds at 4000 feet AGL
Weather: no significant weather observed at this time

METAR text: LTAZ 191050Z VRB05KT 9999 FEW040 18/M02 Q1018 RMK RWY29 28007KT 230V320
Conditions at: LTAZ (NEVSEHIR , TR) observed 1050 UTC 19 March 2019
Temperature: 18.0°C (64°F)
Dewpoint: -2.0°C (28°F) [RH = 26%]
Pressure (altimeter): 30.06 inches Hg (1018.0 mb)
Winds: variable direction winds at 6 MPH (5 knots; 2.6 m/s)
Visibility: 6 or more miles (10+ km)
Ceiling: at least 12,000 feet AGL
Clouds: few clouds at 4000 feet AGL
Weather: no significant weather observed at this time

METAR text: LTAZ 191020Z VRB03KT 9999 FEW040 18/M02 Q1018 RMK RWY29 26005KT 200V350
Conditions at: LTAZ (NEVSEHIR , TR) observed 1020 UTC 19 March 2019
Temperature: 18.0°C (64°F)
Dewpoint: -2.0°C (28°F) [RH = 26%]
Pressure (altimeter): 30.06 inches Hg (1018.0 mb)
Winds: variable direction winds at 3 MPH (3 knots; 1.5 m/s)
Visibility: 6 or more miles (10+ km)
Ceiling: at least 12,000 feet AGL
Clouds: few clouds at 4000 feet AGL
Weather: no significant weather observed at this time

METAR text: LTAZ 190950Z VRB03KT 9999 FEW040 17/M01 Q1019 RMK RWY29 VRB03KT
Conditions at: LTAZ (NEVSEHIR , TR) observed 0950 UTC 19 March 2019
Temperature: 17.0°C (63°F)
Dewpoint: -1.0°C (30°F) [RH = 29%]
Pressure (altimeter): 30.09 inches Hg (1019.0 mb)
Winds: variable direction winds at 3 MPH (3 knots; 1.5 m/s)
Visibility: 6 or more miles (10+ km)
Ceiling: at least 12,000 feet AGL
Clouds: few clouds at 4000 feet AGL
Weather: no significant weather observed at this time

METAR text: LTAZ 190920Z VRB04KT 9999 FEW040 16/M01 Q1019 RMK RWY29 03004KT 300V110
Conditions at: LTAZ (NEVSEHIR , TR) observed 0920 UTC 19 March 2019
Temperature: 16.0°C (61°F)
Dewpoint: -1.0°C (30°F) [RH = 31%]
Pressure (altimeter): 30.09 inches Hg (1019.0 mb)
Winds: variable direction winds at 5 MPH (4 knots; 2.1 m/s)
Visibility: 6 or more miles (10+ km)
Ceiling: at least 12,000 feet AGL
Clouds: few clouds at 4000 feet AGL
Weather: no significant weather observed at this time

METAR text: LTAZ 190850Z VRB03KT 9999 FEW040 16/00 Q1019 RMK RWY29 29005KT 230V010
Conditions at: LTAZ (NEVSEHIR , TR) observed 0850 UTC 19 March 2019
Temperature: 16.0°C (61°F)
Dewpoint: 0.0°C (32°F) [RH = 34%]
Pressure (altimeter): 30.09 inches Hg (1019.0 mb)
Winds: variable direction winds at 3 MPH (3 knots; 1.5 m/s)
Visibility: 6 or more miles (10+ km)
Ceiling: at least 12,000 feet AGL
Clouds: few clouds at 4000 feet AGL
Weather: no significant weather observed at this time

METAR text: LTAZ 190820Z VRB02KT 9999 FEW040 15/01 Q1019 RMK RWY29 VRB02KT
Conditions at: LTAZ (NEVSEHIR , TR) observed 0820 UTC 19 March 2019
Temperature: 15.0°C (59°F)
Dewpoint: 1.0°C (34°F) [RH = 39%]
Pressure (altimeter): 30.09 inches Hg (1019.0 mb)
Winds: variable direction winds at 2 MPH (2 knots; 1.0 m/s)
Visibility: 6 or more miles (10+ km)
Ceiling: at least 12,000 feet AGL
Clouds: few clouds at 4000 feet AGL
Weather: no significant weather observed at this time

METAR text: LTAZ 190750Z 08003KT 040V150 9999 FEW040 13/01 Q1019 RMK RWY29 07004KT 350V130
Conditions at: LTAZ (NEVSEHIR , TR) observed 0750 UTC 19 March 2019
Temperature: 13.0°C (55°F)
Dewpoint: 1.0°C (34°F) [RH = 44%]
Pressure (altimeter): 30.09 inches Hg (1019.0 mb)
Winds: from the E (80 degrees) at 3 MPH (3 knots; 1.5 m/s)
Visibility: 6 or more miles (10+ km)
Ceiling: at least 12,000 feet AGL
Clouds: few clouds at 4000 feet AGL
Weather: no significant weather observed at this time

METAR text: LTAZ 190720Z 13005KT 080V160 CAVOK 11/01 Q1020 RMK RWY29 10005KT 060V140
Conditions at: LTAZ (NEVSEHIR , TR) observed 0720 UTC 19 March 2019
Temperature: 11.0°C (52°F)
Dewpoint: 1.0°C (34°F) [RH = 50%]
Pressure (altimeter): 30.12 inches Hg (1020.0 mb)
Winds: from the SE (130 degrees) at 6 MPH (5 knots; 2.6 m/s)
Visibility: 6 or more miles (10+ km)
Ceiling: ceiling and visibility are OK
Clouds: unknown
Weather: no significant weather observed at this time

METAR text: LTAZ 190650Z 13006KT CAVOK 10/01 Q1020 RMK RWY29 12005KT
Conditions at: LTAZ (NEVSEHIR , TR) observed 0650 UTC 19 March 2019
Temperature: 10.0°C (50°F)
Dewpoint: 1.0°C (34°F) [RH = 53%]
Pressure (altimeter): 30.12 inches Hg (1020.0 mb)
Winds: from the SE (130 degrees) at 7 MPH (6 knots; 3.1 m/s)
Visibility: 6 or more miles (10+ km)
Ceiling: ceiling and visibility are OK
Clouds: unknown
Weather: no significant weather observed at this time

METAR text: LTAZ 190620Z 13008KT CAVOK 08/M00 Q1020 RMK RWY29 13006KT
Conditions at: LTAZ (NEVSEHIR , TR) observed 0620 UTC 19 March 2019
Temperature: 8.0°C (46°F)
Dewpoint: 0.0°C (32°F) [RH = 57%]
Pressure (altimeter): 30.12 inches Hg (1020.0 mb)
Winds: from the SE (130 degrees) at 9 MPH (8 knots; 4.1 m/s)
Visibility: 6 or more miles (10+ km)
Ceiling: ceiling and visibility are OK
Clouds: unknown
Weather: no significant weather observed at this time

METAR text: LTAZ 190550Z 12009KT CAVOK 05/M00 Q1020 RMK RWY29 12005KT
Conditions at: LTAZ (NEVSEHIR , TR) observed 0550 UTC 19 March 2019
Temperature: 5.0°C (41°F)
Dewpoint: 0.0°C (32°F) [RH = 70%]
Pressure (altimeter): 30.12 inches Hg (1020.0 mb)
Winds: from the ESE (120 degrees) at 10 MPH (9 knots; 4.6 m/s)
Visibility: 6 or more miles (10+ km)
Ceiling: ceiling and visibility are OK
Clouds: unknown
Weather: no significant weather observed at this time

METAR text: LTAZ 190520Z 13008KT CAVOK 04/M01 Q1020 RMK RWY29 15005KT
Conditions at: LTAZ (NEVSEHIR , TR) observed 0520 UTC 19 March 2019
Temperature: 4.0°C (39°F)
Dewpoint: -1.0°C (30°F) [RH = 70%]
Pressure (altimeter): 30.12 inches Hg (1020.0 mb)
Winds: from the SE (130 degrees) at 9 MPH (8 knots; 4.1 m/s)
Visibility: 6 or more miles (10+ km)
Ceiling: ceiling and visibility are OK
Clouds: unknown
Weather: no significant weather observed at this time

METAR text: LTAZ 190450Z 12008KT CAVOK 02/M01 Q1020 RMK RWY29 15004KT
Conditions at: LTAZ (NEVSEHIR , TR) observed 0450 UTC 19 March 2019
Temperature: 2.0°C (36°F)
Dewpoint: -1.0°C (30°F) [RH = 80%]
Pressure (altimeter): 30.12 inches Hg (1020.0 mb)
Winds: from the ESE (120 degrees) at 9 MPH (8 knots; 4.1 m/s)
Visibility: 6 or more miles (10+ km)
Ceiling: ceiling and visibility are OK
Clouds: unknown
Weather: no significant weather observed at this time

METAR text: LTAZ 190420Z 12006KT CAVOK 01/M02 Q1020 RMK RWY29 14005KT
Conditions at: LTAZ (NEVSEHIR , TR) observed 0420 UTC 19 March 2019
Temperature: 1.0°C (34°F)
Dewpoint: -2.0°C (28°F) [RH = 80%]
Pressure (altimeter): 30.12 inches Hg (1020.0 mb)
Winds: from the ESE (120 degrees) at 7 MPH (6 knots; 3.1 m/s)
Visibility: 6 or more miles (10+ km)
Ceiling: ceiling and visibility are OK
Clouds: unknown
Weather: no significant weather observed at this time

METAR text: LTAZ 190350Z 13008KT CAVOK 01/M02 Q1020 RMK RWY29 16005KT
Conditions at: LTAZ (NEVSEHIR , TR) observed 0350 UTC 19 March 2019
Temperature: 1.0°C (34°F)
Dewpoint: -2.0°C (28°F) [RH = 80%]
Pressure (altimeter): 30.12 inches Hg (1020.0 mb)
Winds: from the SE (130 degrees) at 9 MPH (8 knots; 4.1 m/s)
Visibility: 6 or more miles (10+ km)
Ceiling: ceiling and visibility are OK
Clouds: unknown
Weather: no significant weather observed at this time

Forecast for: LTAZ (NEVSEHIR , TR)
Text: TAF LTAZ 201040Z 2012/2112 VRB02KT 9999 SCT040
Forecast period: 1200 to 1700 UTC 20 March 2019
Forecast type: FROM: standard forecast or significant change
Winds: variable direction winds at 2 MPH (2 knots; 1.0 m/s)
Visibility: 6 or more miles 10+ km)
Ceiling: at least 12,000 feet AGL
Clouds: scattered clouds at 4000 feet AGL
Weather: no significant weather forecast for this period
Text: TEMPO 2012/2016 34012KT
Forecast period: 1200 to 1600 UTC 20 March 2019
Forecast type: TEMPORARY: The following changes expected for less than half the time period
Winds: from the NNW (340 degrees) at 14 MPH (12 knots; 6.2 m/s)
Visibility: missing
Ceiling: unknown
Clouds: missing
Weather: no significant weather forecast for this period
Text: PROB30 2016/2019 01012KT
Forecast period: 1600 to 1900 UTC 20 March 2019
Forecast type: PROBABLE: 30 percent likelihood of the following during this time
Winds: from the N (10 degrees) at 14 MPH (12 knots; 6.2 m/s)
Visibility: missing
Ceiling: unknown
Clouds: missing
Weather: no significant weather forecast for this period
Text: BECMG 2017/2020 CAVOK
Forecast period: 1700 UTC 20 March 2019 to 1200 UTC 21 March 2019
Forecast type: BECOMING: Conditions expected to become as follows by 2000 UTC 20 March 2019
Winds: variable direction winds at 2 MPH (2 knots; 1.0 m/s)
Visibility: 6 or more miles 10+ km)
Ceiling: unknown
Clouds: missing
Weather: NSW  (no significant weather)
Text: TEMPO 2109/2112 01012KT FEW040
Forecast period: 0900 to 1200 UTC 21 March 2019
Forecast type: TEMPORARY: The following changes expected for less than half the time period
Winds: from the N (10 degrees) at 14 MPH (12 knots; 6.2 m/s)
Visibility: missing
Ceiling: at least 12,000 feet AGL
Clouds: few clouds at 4000 feet AGL
Weather: no significant weather forecast for this period